Time;durP1;ratioP1;P1;durP2;ratioP2;P2;SDS_P1;SDS_P2;PMS_P1;PMS_P2;Temp;Humidity;BMP_temperature;BMP_pressure;BME280_temperature;BME280_humidity;BME280_pressure;Samples;Min_cycle;Max_cycle;Signal;HPM_P1;HPM_P2
2024/01/21 00:00:43;;;;;;;7.82;4.43;;;;;;;0.77;100.00;101371.13;5084871;28;20513;-78
2024/01/21 00:03:08;;;;;;;10.15;5.32;;;;;;;0.58;100.00;101378.81;5075490;28;20100;-78
2024/01/21 00:05:34;;;;;;;9.25;4.90;;;;;;;0.42;100.00;101373.94;5073280;28;20028;-79
2024/01/21 00:08:00;;;;;;;10.38;4.80;;;;;;;0.32;100.00;101357.25;5067350;28;20041;-78
2024/01/21 00:10:25;;;;;;;10.50;5.25;;;;;;;0.49;100.00;101376.91;5066426;28;20120;-78
2024/01/21 00:12:50;;;;;;;10.77;5.38;;;;;;;0.28;100.00;101364.53;5052937;28;20451;-77
2024/01/21 00:15:16;;;;;;;9.00;5.13;;;;;;;0.31;100.00;101364.28;5076537;28;20053;-78
2024/01/21 00:17:42;;;;;;;11.15;5.50;;;;;;;0.49;100.00;101379.53;5090184;28;20048;-76
2024/01/21 00:20:08;;;;;;;12.75;6.75;;;;;;;0.37;100.00;101371.69;5072285;28;20039;-78
2024/01/21 00:22:33;;;;;;;13.02;5.88;;;;;;;0.30;100.00;101356.53;5072051;28;20051;-78
2024/01/21 00:24:59;;;;;;;17.30;9.48;;;;;;;0.48;100.00;101372.63;5069100;28;20504;-78
2024/01/21 00:27:24;;;;;;;32.33;20.52;;;;;;;0.46;100.00;101385.88;5077180;28;20044;-78
2024/01/21 00:29:49;;;;;;;49.55;30.10;;;;;;;0.55;100.00;101371.19;5070284;28;20402;-78
2024/01/21 00:32:15;;;;;;;81.95;58.55;;;;;;;0.16;100.00;101347.13;5070790;28;20036;-79
2024/01/21 00:34:40;;;;;;;45.92;31.85;;;;;;;0.42;100.00;101381.00;5070140;28;20036;-80
2024/01/21 00:37:06;;;;;;;25.35;17.77;;;;;;;0.09;100.00;101354.63;5070197;28;20116;-78
2024/01/21 00:39:33;;;;;;;49.25;34.10;;;;;;;0.46;100.00;101383.25;5070118;28;20037;-78
2024/01/21 00:41:58;;;;;;;57.45;38.83;;;;;;;0.23;100.00;101364.06;5069674;28;20029;-79
2024/01/21 00:44:24;;;;;;;37.85;25.85;;;;;;;0.12;100.00;101346.53;5069520;28;20040;-78
2024/01/21 00:46:50;;;;;;;21.27;14.82;;;;;;;0.39;100.00;101369.78;5077759;28;20040;-78
2024/01/21 00:49:16;;;;;;;23.45;15.98;;;;;;;0.76;100.00;101390.50;5090675;28;20028;-78
2024/01/21 00:51:41;;;;;;;16.83;11.35;;;;;;;0.69;100.00;101383.22;5090448;28;20028;-78
2024/01/21 00:54:07;;;;;;;19.80;13.55;;;;;;;0.45;100.00;101367.63;5091260;28;20024;-77
2024/01/21 00:56:32;;;;;;;15.23;10.52;;;;;;;0.33;100.00;101345.81;5085246;28;21305;-77
2024/01/21 00:58:58;;;;;;;12.07;6.72;;;;;;;0.70;100.00;101393.59;5070193;28;20020;-77
2024/01/21 01:01:23;;;;;;;13.13;7.00;;;;;;;0.82;100.00;101386.53;5051745;28;20032;-78
2024/01/21 01:03:49;;;;;;;34.58;20.23;;;;;;;0.64;100.00;101380.97;5051341;28;20024;-78
2024/01/21 01:06:14;;;;;;;50.38;35.13;;;;;;;0.41;100.00;101346.03;5070996;28;20028;-77
2024/01/21 01:08:39;;;;;;;18.33;10.13;;;;;;;0.92;100.00;101384.84;5069944;28;20115;-78
2024/01/21 01:11:05;;;;;;;21.40;14.85;;;;;;;0.71;100.00;101358.50;5069418;28;20054;-77
2024/01/21 01:13:30;;;;;;;12.65;7.45;;;;;;;0.92;100.00;101368.22;5068849;28;20104;-78
2024/01/21 01:15:58;;;;;;;18.65;14.13;;;;;;;0.57;100.00;101346.50;5068809;28;20040;-77
2024/01/21 01:18:24;;;;;;;12.32;7.30;;;;;;;0.62;100.00;101375.00;5072824;28;20036;-78
2024/01/21 01:20:49;;;;;;;12.75;7.22;;;;;;;0.56;100.00;101355.31;5069167;28;20063;-78
2024/01/21 01:23:15;;;;;;;14.27;9.48;;;;;;;0.93;100.00;101385.69;5068984;28;20038;-78
2024/01/21 01:25:40;;;;;;;18.60;13.57;;;;;;;0.61;100.00;101365.44;5068397;28;20039;-78
2024/01/21 01:28:05;;;;;;;14.05;8.93;;;;;;;0.50;100.00;101365.47;5071522;28;20496;-78
2024/01/21 01:30:31;;;;;;;9.05;5.25;;;;;;;0.74;100.00;101383.69;5069256;28;20037;-79
2024/01/21 01:32:56;;;;;;;9.68;5.45;;;;;;;1.03;100.00;101386.59;5069404;28;20567;-79
2024/01/21 01:35:22;;;;;;;9.02;4.90;;;;;;;1.05;100.00;101395.19;5068360;28;20378;-78
2024/01/21 01:37:47;;;;;;;15.45;9.68;;;;;;;0.73;100.00;101380.22;5080662;28;20024;-78
2024/01/21 01:40:17;;;;;;;15.02;9.18;;;;;;;0.72;100.00;101386.44;5089139;28;20020;-78
2024/01/21 01:42:43;;;;;;;11.85;5.65;;;;;;;0.68;100.00;101369.25;5089009;28;20016;-78
2024/01/21 01:45:08;;;;;;;15.70;7.90;;;;;;;0.40;100.00;101358.31;5055170;28;20093;-77
2024/01/21 01:47:34;;;;;;;19.52;10.23;;;;;;;0.73;100.00;101368.88;5052846;28;21066;-79
2024/01/21 01:50:00;;;;;;;20.85;11.43;;;;;;;0.64;100.00;101369.63;5068608;28;20673;-78
2024/01/21 01:52:25;;;;;;;17.13;6.38;;;;;;;0.88;100.00;101391.31;5068709;28;20025;-79
2024/01/21 01:54:51;;;;;;;17.60;6.10;;;;;;;0.86;100.00;101389.75;5068297;28;20218;-78
2024/01/21 01:57:18;;;;;;;13.45;5.38;;;;;;;0.60;100.00;101388.25;5070839;28;20024;-79
2024/01/21 01:59:43;;;;;;;10.55;4.47;;;;;;;0.43;100.00;101354.63;5068486;28;20036;-78
2024/01/21 02:02:10;;;;;;;7.25;3.72;;;;;;;0.80;100.00;101381.41;5068281;28;20028;-78
2024/01/21 02:04:35;;;;;;;7.82;3.95;;;;;;;0.90;100.00;101393.78;5050367;28;20062;-77
2024/01/21 02:07:01;;;;;;;8.13;3.60;;;;;;;1.15;100.00;101403.16;5069824;28;20145;-77
2024/01/21 02:09:27;;;;;;;8.02;3.67;;;;;;;0.96;100.00;101367.88;5051284;28;20036;-77
2024/01/21 02:11:52;;;;;;;8.90;4.13;;;;;;;0.92;100.00;101382.22;5050363;28;20021;-77
2024/01/21 02:14:17;;;;;;;7.65;4.15;;;;;;;0.87;100.00;101396.69;5067653;28;20448;-78
2024/01/21 02:16:43;;;;;;;7.80;4.03;;;;;;;0.78;100.00;101393.81;5050119;28;20029;-78
2024/01/21 02:19:26;;;;;;;7.70;3.70;;;;;;;0.90;100.00;101399.91;5070746;28;20051;-78
2024/01/21 02:21:52;;;;;;;9.70;4.72;;;;;;;0.98;100.00;101418.50;5068123;28;20028;-78
2024/01/21 02:24:18;;;;;;;7.47;3.92;;;;;;;0.88;100.00;101380.81;5067700;28;20090;-78
2024/01/21 02:26:43;;;;;;;9.20;4.10;;;;;;;0.98;100.00;101412.41;5068091;28;20025;-79
2024/01/21 02:29:09;;;;;;;8.15;4.13;;;;;;;0.83;100.00;101408.38;5064455;28;20518;-77
2024/01/21 02:31:35;;;;;;;9.60;4.38;;;;;;;0.72;100.00;101407.44;5088231;28;20524;-78
2024/01/21 02:34:00;;;;;;;9.57;4.32;;;;;;;0.64;100.00;101398.50;5069737;28;20032;-78
2024/01/21 02:36:25;;;;;;;8.00;4.35;;;;;;;0.79;100.00;101419.13;5087954;28;20042;-78
2024/01/21 02:38:51;;;;;;;8.10;4.25;;;;;;;0.46;100.00;101390.28;5086286;28;20126;-78
2024/01/21 02:41:16;;;;;;;8.82;4.50;;;;;;;0.60;100.00;101411.03;5087942;28;20031;-78
2024/01/21 02:43:41;;;;;;;9.05;4.15;;;;;;;0.28;100.00;101396.00;5088102;28;20087;-77
2024/01/21 02:46:07;;;;;;;8.13;4.07;;;;;;;0.08;100.00;101370.47;5070398;28;20032;-77
2024/01/21 02:48:32;;;;;;;8.07;4.10;;;;;;;0.37;100.00;101415.47;5059031;28;20027;-78
2024/01/21 02:50:58;;;;;;;7.90;4.18;;;;;;;0.36;100.00;101422.50;5087514;28;20449;-78
2024/01/21 02:53:23;;;;;;;9.25;4.68;;;;;;;0.59;100.00;101428.59;5087301;28;20031;-79
2024/01/21 02:55:48;;;;;;;10.15;4.88;;;;;;;0.27;100.00;101411.91;5089399;28;20036;-79
2024/01/21 02:58:14;;;;;;;8.25;4.32;;;;;;;0.50;100.00;101418.78;5086505;28;20039;-79
2024/01/21 03:00:39;;;;;;;10.02;4.75;;;;;;;0.56;100.00;101413.06;5087377;28;20028;-79
2024/01/21 03:03:05;;;;;;;9.55;5.28;;;;;;;0.47;100.00;101391.94;5090451;28;20064;-78
2024/01/21 03:05:30;;;;;;;20.73;8.70;;;;;;;0.63;100.00;101420.47;5087166;28;20028;-78
2024/01/21 03:07:56;;;;;;;38.58;15.05;;;;;;;0.52;100.00;101410.81;5085327;28;20557;-77
2024/01/21 03:10:21;;;;;;;25.40;10.95;;;;;;;0.43;100.00;101370.38;5067433;28;20063;-77
2024/01/21 03:12:46;;;;;;;26.05;10.90;;;;;;;0.46;100.00;101427.88;5067314;28;20028;-79
2024/01/21 03:15:12;;;;;;;10.65;5.45;;;;;;;0.26;100.00;101394.47;5048836;28;20489;-79
2024/01/21 03:17:37;;;;;;;10.63;5.30;;;;;;;0.29;100.00;101410.81;5067672;28;20031;-78
2024/01/21 03:20:05;;;;;;;9.65;4.68;;;;;;;-0.12;100.00;101383.34;5069152;28;20493;-78
2024/01/21 03:22:30;;;;;;;9.10;5.03;;;;;;;0.25;100.00;101398.88;5049083;28;20024;-79
2024/01/21 03:24:55;;;;;;;10.70;4.93;;;;;;;0.39;100.00;101396.03;5066589;28;20086;-78
2024/01/21 03:27:21;;;;;;;13.93;6.50;;;;;;;0.50;100.00;101425.84;5066879;28;20016;-78
2024/01/21 03:29:46;;;;;;;26.23;13.38;;;;;;;0.39;100.00;101419.63;5069686;28;20039;-79
2024/01/21 03:32:12;;;;;;;27.20;10.88;;;;;;;0.33;100.00;101412.25;5066872;28;20021;-78
2024/01/21 03:34:41;;;;;;;13.00;6.43;;;;;;;0.25;100.00;101377.06;5067014;28;20033;-78
2024/01/21 03:37:07;;;;;;;11.65;5.75;;;;;;;0.49;100.00;101429.41;5049266;28;20071;-78
2024/01/21 03:39:32;;;;;;;13.07;6.50;;;;;;;0.56;100.00;101425.38;5078099;28;20512;-78
2024/01/21 03:41:58;;;;;;;11.27;5.90;;;;;;;0.70;100.00;101435.63;5068649;28;20019;-77
2024/01/21 03:44:24;;;;;;;12.57;5.93;;;;;;;0.65;100.00;101424.63;5069061;28;20477;-78
2024/01/21 03:46:49;;;;;;;11.43;6.00;;;;;;;0.66;100.00;101441.22;5070454;28;20441;-78
2024/01/21 03:49:15;;;;;;;17.02;7.50;;;;;;;0.28;100.00;101382.06;5083420;28;20081;-79
2024/01/21 03:51:40;;;;;;;9.30;5.43;;;;;;;0.55;100.00;101435.03;5090974;28;20028;-78
2024/01/21 03:54:05;;;;;;;11.45;6.22;;;;;;;0.11;100.00;101402.56;5072547;28;20031;-78
2024/01/21 03:56:31;;;;;;;11.75;6.15;;;;;;;-0.03;100.00;101411.47;5078086;28;20021;-77
2024/01/21 03:58:59;;;;;;;45.83;26.30;;;;;;;-0.20;100.00;101398.84;5078018;28;21221;-79
2024/01/21 04:01:24;;;;;;;24.88;14.38;;;;;;;-0.04;100.00;101443.91;5091148;28;20020;-77
2024/01/21 04:03:50;;;;;;;34.75;22.05;;;;;;;-0.03;100.00;101435.09;5090544;28;20028;-78
2024/01/21 04:06:16;;;;;;;48.83;33.05;;;;;;;-0.05;100.00;101423.88;5080734;28;20043;-78
2024/01/21 04:08:42;;;;;;;33.78;23.50;;;;;;;0.13;100.00;101440.00;5072961;28;20028;-78
2024/01/21 04:11:07;;;;;;;21.10;13.20;;;;;;;0.31;100.00;101429.91;5090894;28;20060;-78
2024/01/21 04:13:32;;;;;;;14.90;7.72;;;;;;;0.38;100.00;101431.06;5090706;28;20050;-79
2024/01/21 04:15:59;;;;;;;15.05;7.93;;;;;;;0.35;100.00;101438.38;5084164;28;20422;-77
2024/01/21 04:18:24;;;;;;;19.67;9.25;;;;;;;0.43;100.00;101428.13;5070600;28;20028;-79
2024/01/21 04:20:49;;;;;;;17.17;9.75;;;;;;;0.19;100.00;101426.41;5089519;28;20093;-79
2024/01/21 04:23:15;;;;;;;19.48;11.02;;;;;;;-0.04;100.00;101385.38;5090069;28;20081;-78
2024/01/21 04:25:40;;;;;;;32.88;17.95;;;;;;;0.23;100.00;101431.44;5090421;28;20069;-78
2024/01/21 04:28:06;;;;;;;24.52;12.73;;;;;;;0.42;100.00;101441.34;5090698;28;20019;-77
2024/01/21 04:30:31;;;;;;;22.73;13.40;;;;;;;0.47;100.00;101439.19;5088380;28;20040;-78
2024/01/21 04:32:56;;;;;;;20.40;11.02;;;;;;;0.43;100.00;101438.63;5090392;28;20479;-78
2024/01/21 04:35:22;;;;;;;20.20;11.40;;;;;;;0.49;100.00;101426.78;5090518;28;20097;-78
2024/01/21 04:37:48;;;;;;;20.63;12.00;;;;;;;0.34;100.00;101424.41;5070459;28;20033;-78
2024/01/21 04:40:14;;;;;;;19.88;10.93;;;;;;;0.37;100.00;101423.34;5072540;28;20036;-78
2024/01/21 04:42:39;;;;;;;18.38;10.57;;;;;;;0.63;100.00;101458.03;5069734;28;20036;-78
2024/01/21 04:45:05;;;;;;;20.90;10.57;;;;;;;0.47;100.00;101441.81;5069845;28;20103;-78
2024/01/21 04:47:30;;;;;;;26.75;16.20;;;;;;;0.32;100.00;101421.06;5069323;28;20030;-78
2024/01/21 04:49:56;;;;;;;25.73;14.18;;;;;;;0.33;100.00;101441.09;5078217;28;20478;-78
2024/01/21 04:52:21;;;;;;;20.30;11.68;;;;;;;0.35;100.00;101457.56;5089745;28;20055;-77
2024/01/21 04:54:47;;;;;;;19.52;11.85;;;;;;;0.38;100.00;101435.50;5089969;28;20143;-78
2024/01/21 04:57:12;;;;;;;16.77;9.80;;;;;;;0.64;100.00;101451.84;5059382;28;20055;-77
2024/01/21 04:59:37;;;;;;;19.00;10.48;;;;;;;0.30;100.00;101441.34;5071981;28;20102;-78
2024/01/21 05:02:03;;;;;;;17.25;9.10;;;;;;;0.49;100.00;101453.03;5068482;28;20024;-77
2024/01/21 05:04:28;;;;;;;16.52;9.35;;;;;;;0.52;100.00;101455.44;5051188;28;20044;-78
2024/01/21 05:06:54;;;;;;;17.35;9.15;;;;;;;0.41;100.00;101443.16;5069839;28;20465;-77
2024/01/21 05:09:19;;;;;;;15.98;8.90;;;;;;;0.44;100.00;101444.69;5071353;28;20065;-77
2024/01/21 05:11:45;;;;;;;17.50;8.90;;;;;;;0.22;100.00;101440.25;5088812;28;20057;-79
2024/01/21 05:14:10;;;;;;;15.70;8.43;;;;;;;0.36;100.00;101451.34;5070887;28;20413;-78
2024/01/21 05:16:39;;;;;;;17.15;9.45;;;;;;;0.38;100.00;101467.81;5084524;28;20025;-77
2024/01/21 05:19:04;;;;;;;15.98;9.13;;;;;;;-0.27;100.00;101444.81;5069685;28;20486;-78
2024/01/21 05:21:30;;;;;;;17.23;9.98;;;;;;;-0.14;100.00;101445.56;5088406;28;20077;-78
2024/01/21 05:23:55;;;;;;;18.90;10.43;;;;;;;-0.06;100.00;101437.97;5089155;28;20118;-78
2024/01/21 05:26:21;;;;;;;17.73;9.80;;;;;;;0.32;100.00;101460.41;5089058;28;20028;-77
2024/01/21 05:28:46;;;;;;;16.08;8.52;;;;;;;0.09;100.00;101456.09;5089004;28;20477;-79
2024/01/21 05:31:12;;;;;;;21.33;11.00;;;;;;;0.16;100.00;101452.03;5087641;28;20143;-78
2024/01/21 05:33:40;;;;;;;19.55;9.98;;;;;;;-0.05;100.00;101446.66;5089463;28;20058;-78
2024/01/21 05:36:06;;;;;;;23.30;11.77;;;;;;;0.11;100.00;101469.94;5089122;28;20577;-78
2024/01/21 05:38:31;;;;;;;24.27;12.85;;;;;;;-0.08;100.00;101466.09;5069676;28;20052;-78
2024/01/21 05:40:56;;;;;;;19.42;10.95;;;;;;;0.03;100.00;101488.03;5071627;28;20112;-78
2024/01/21 05:43:22;;;;;;;22.20;12.23;;;;;;;-0.27;100.00;101455.28;5068716;28;20121;-78
2024/01/21 05:45:47;;;;;;;15.88;9.30;;;;;;;-0.35;100.00;101452.41;5068607;28;20025;-77
2024/01/21 05:48:13;;;;;;;19.83;9.32;;;;;;;-0.47;100.00;101455.00;5068706;28;20025;-78
2024/01/21 05:50:38;;;;;;;16.40;9.15;;;;;;;-0.52;100.00;101470.19;5076537;28;20056;-79
2024/01/21 05:53:05;;;;;;;16.55;9.48;;;;;;;-0.51;100.00;101461.41;5088784;28;20024;-79
2024/01/21 05:55:31;;;;;;;17.83;10.27;;;;;;;-0.48;100.00;101503.09;5089331;28;20032;-78
2024/01/21 05:57:57;;;;;;;33.67;18.15;;;;;;;-0.57;100.00;101495.91;5076734;28;20127;-77
2024/01/21 06:00:25;;;;;;;37.83;19.10;;;;;;;-0.82;100.00;101492.44;5073598;28;20131;-78
2024/01/21 06:02:52;;;;;;;33.15;18.27;;;;;;;-0.69;100.00;101523.00;5070595;28;20473;-78
2024/01/21 06:05:17;;;;;;;32.13;19.38;;;;;;;-0.90;100.00;101505.25;5088680;28;20032;-78
2024/01/21 06:07:44;;;;;;;56.78;35.25;;;;;;;-0.67;100.00;101480.03;5089111;28;20051;-78
2024/01/21 06:10:10;;;;;;;69.05;43.13;;;;;;;-0.96;100.00;101489.97;5088760;28;20031;-78
2024/01/21 06:12:36;;;;;;;53.10;34.17;;;;;;;-0.57;100.00;101543.09;5068678;28;20036;-79
2024/01/21 06:15:01;;;;;;;50.10;27.40;;;;;;;-0.73;100.00;101543.34;5067948;28;20532;-78
2024/01/21 06:17:27;;;;;;;51.35;29.48;;;;;;;-0.53;100.00;101523.56;5068010;28;20064;-79
2024/01/21 06:19:52;;;;;;;51.17;27.10;;;;;;;-0.24;100.00;101529.31;5068136;28;20024;-78
2024/01/21 06:22:18;;;;;;;48.03;27.15;;;;;;;-0.06;100.00;101529.75;5070336;28;20032;-77
2024/01/21 06:24:43;;;;;;;50.53;28.67;;;;;;;-0.04;100.00;101546.19;5068069;28;20032;-78
2024/01/21 06:27:08;;;;;;;50.13;26.85;;;;;;;-0.16;100.00;101554.97;5068031;28;20074;-78
2024/01/21 06:29:34;;;;;;;52.83;32.08;;;;;;;-0.46;100.00;101561.47;5068169;28;20021;-78
2024/01/21 06:31:59;;;;;;;74.65;43.33;;;;;;;-0.88;100.00;101512.97;5073145;28;20028;-78
2024/01/21 06:34:25;;;;;;;65.68;32.15;;;;;;;-0.25;100.00;101563.50;5068222;28;20084;-78
2024/01/21 06:36:50;;;;;;;84.43;35.85;;;;;;;-0.09;100.00;101563.22;5074393;28;20116;-79
2024/01/21 06:39:15;;;;;;;89.10;41.67;;;;;;;0.05;100.00;101564.84;5087173;28;20463;-78
2024/01/21 06:41:41;;;;;;;117.20;50.83;;;;;;;0.18;100.00;101555.09;5086793;28;20107;-78
2024/01/21 06:44:06;;;;;;;105.13;46.90;;;;;;;0.32;100.00;101551.44;5089568;28;20024;-78
2024/01/21 06:46:32;;;;;;;90.35;41.53;;;;;;;0.37;100.00;101555.38;5096957;28;20066;-78
2024/01/21 06:48:57;;;;;;;97.97;41.10;;;;;;;0.52;100.00;101560.44;5099174;28;20043;-78
2024/01/21 06:51:34;;;;;;;101.10;42.15;;;;;;;0.44;100.00;101550.50;5096667;28;20039;-78
2024/01/21 06:54:00;;;;;;;127.25;48.65;;;;;;;0.87;100.00;101580.53;5087136;28;20088;-78
2024/01/21 06:56:26;;;;;;;179.77;63.42;;;;;;;0.52;100.00;101590.13;5088753;28;20542;-78
2024/01/21 06:58:51;;;;;;;167.32;64.75;;;;;;;0.24;100.00;101559.88;5091523;28;20087;-78
2024/01/21 07:01:17;;;;;;;162.13;65.32;;;;;;;0.31;100.00;101561.09;5090290;28;20153;-77
2024/01/21 07:03:43;;;;;;;137.82;55.08;;;;;;;0.46;100.00;101576.63;5089816;28;20035;-79
2024/01/21 07:06:09;;;;;;;149.13;55.67;;;;;;;0.25;100.00;101569.44;5085752;28;20084;-79
2024/01/21 07:08:34;;;;;;;141.55;48.03;;;;;;;0.71;100.00;101593.97;5090861;28;20028;-78
2024/01/21 07:11:00;;;;;;;133.60;47.35;;;;;;;0.75;100.00;101600.69;5080851;28;20051;-79
2024/01/21 07:13:25;;;;;;;104.57;43.65;;;;;;;0.78;100.00;101603.91;5071043;28;20032;-79
2024/01/21 07:15:51;;;;;;;242.05;125.22;;;;;;;0.28;100.00;101553.44;5085079;28;20523;-78
2024/01/21 07:18:17;;;;;;;81.03;40.58;;;;;;;0.58;100.00;101578.34;5082420;28;20032;-79
2024/01/21 07:20:42;;;;;;;32.60;14.70;;;;;;;0.57;100.00;101588.00;5078310;28;20433;-78
2024/01/21 07:23:08;;;;;;;32.08;16.60;;;;;;;0.79;100.00;101576.69;5082908;28;20597;-78
2024/01/21 07:25:33;;;;;;;27.50;10.68;;;;;;;0.33;100.00;101588.06;5088580;28;20606;-78
2024/01/21 07:27:58;;;;;;;21.67;8.77;;;;;;;0.03;100.00;101603.44;5067856;28;20028;-79
2024/01/21 07:30:24;;;;;;;27.33;9.27;;;;;;;0.17;100.00;101605.91;5067715;28;20028;-79
2024/01/21 07:32:49;;;;;;;27.52;9.15;;;;;;;0.27;100.00;101588.53;5077297;28;20024;-78
2024/01/21 07:35:15;;;;;;;80.50;12.23;;;;;;;0.47;100.00;101601.91;5087084;28;20016;-79
2024/01/21 07:37:40;;;;;;;66.25;22.75;;;;;;;-0.04;100.00;101587.31;5077437;28;20033;-78
2024/01/21 07:40:06;;;;;;;123.78;34.55;;;;;;;-0.14;100.00;101607.28;5063696;28;20032;-79
2024/01/21 07:42:32;;;;;;;137.02;41.38;;;;;;;-0.28;100.00;101595.19;5059218;28;20024;-79
2024/01/21 07:44:58;;;;;;;186.50;44.72;;;;;;;-0.12;100.00;101621.13;5067384;28;20032;-82
2024/01/21 07:47:24;;;;;;;153.88;44.05;;;;;;;-0.22;100.00;101595.56;5050051;28;20497;-79
2024/01/21 07:49:50;;;;;;;239.68;46.40;;;;;;;0.27;100.00;101621.81;5066618;28;20123;-79
2024/01/21 07:52:18;;;;;;;164.65;41.30;;;;;;;-0.27;100.00;101583.75;5078264;28;20028;-78
2024/01/21 07:54:44;;;;;;;129.75;32.15;;;;;;;-0.09;100.00;101595.50;5077084;28;20114;-80
2024/01/21 07:57:09;;;;;;;137.35;28.52;;;;;;;0.42;100.00;101623.28;5077549;28;20108;-79
2024/01/21 07:59:35;;;;;;;109.07;29.17;;;;;;;0.24;100.00;101628.09;5078348;28;20390;-79
2024/01/21 08:02:00;;;;;;;154.90;25.20;;;;;;;0.39;100.00;101615.63;5086058;28;20028;-79
2024/01/21 08:04:26;;;;;;;137.30;22.23;;;;;;;0.15;100.00;101610.41;5086745;28;20670;-79
2024/01/21 08:06:51;;;;;;;140.45;21.50;;;;;;;0.39;100.00;101611.22;5086608;28;20325;-78
2024/01/21 08:09:16;;;;;;;82.93;20.42;;;;;;;1.18;100.00;101639.41;5068567;28;20428;-78
2024/01/21 08:11:42;;;;;;;118.20;24.63;;;;;;;1.07;100.00;101653.38;5086488;28;20039;-79
2024/01/21 08:14:07;;;;;;;122.63;27.25;;;;;;;0.78;100.00;101624.09;5067733;28;20029;-78
2024/01/21 08:16:33;;;;;;;63.25;21.27;;;;;;;0.93;100.00;101635.22;5047570;28;20032;-78
2024/01/21 08:18:58;;;;;;;70.53;20.95;;;;;;;0.64;100.00;101650.56;5047455;28;20039;-79
2024/01/21 08:21:23;;;;;;;92.85;17.42;;;;;;;0.85;100.00;101634.97;5047212;28;20509;-80
2024/01/21 08:23:49;;;;;;;78.63;14.63;;;;;;;0.64;100.00;101619.88;5076860;28;20562;-77
2024/01/21 08:26:16;;;;;;;44.40;13.05;;;;;;;0.68;100.00;101636.25;5075239;28;20024;-79
2024/01/21 08:28:41;;;;;;;49.45;14.00;;;;;;;1.05;100.00;101663.16;5078278;28;20024;-79
2024/01/21 08:31:07;;;;;;;92.53;14.52;;;;;;;1.15;100.00;101656.25;5066377;28;20116;-79
2024/01/21 08:33:35;;;;;;;45.45;13.13;;;;;;;1.30;100.00;101658.66;5083055;28;20089;-79
2024/01/21 08:36:00;;;;;;;31.17;12.20;;;;;;;1.39;100.00;101657.94;5081337;28;20054;-80
2024/01/21 08:38:26;;;;;;;43.08;13.00;;;;;;;1.59;100.00;101656.34;5081221;28;20493;-79
2024/01/21 08:40:52;;;;;;;60.28;15.45;;;;;;;1.70;100.00;101664.25;5066866;28;20036;-80
2024/01/21 08:43:17;;;;;;;60.33;16.98;;;;;;;1.88;100.00;101664.59;5079669;28;20028;-79
2024/01/21 08:45:43;;;;;;;48.50;13.77;;;;;;;2.22;100.00;101669.75;5079932;28;20115;-80
2024/01/21 08:48:08;;;;;;;50.53;15.02;;;;;;;2.25;100.00;101666.88;5080995;28;20619;-79
2024/01/21 08:50:34;;;;;;;49.95;13.48;;;;;;;2.22;100.00;101678.47;5084590;28;20036;-78
2024/01/21 08:52:59;;;;;;;30.45;11.32;;;;;;;2.53;100.00;101670.69;5080813;28;20404;-77
2024/01/21 08:55:25;;;;;;;29.38;11.20;;;;;;;2.18;100.00;101647.25;5083104;28;20408;-77
2024/01/21 08:57:50;;;;;;;27.95;12.85;;;;;;;2.49;100.00;101657.91;5081592;28;20074;-78
2024/01/21 09:00:16;;;;;;;35.88;11.50;;;;;;;2.64;100.00;101677.72;5081781;28;20028;-77
2024/01/21 09:02:41;;;;;;;37.35;16.17;;;;;;;2.55;100.00;101652.13;5086725;28;20043;-78
2024/01/21 09:05:07;;;;;;;28.58;14.60;;;;;;;2.53;100.00;101664.59;5069997;28;20040;-77
2024/01/21 09:07:33;;;;;;;29.73;17.45;;;;;;;2.69;100.00;101658.88;5070879;28;20746;-80
2024/01/21 09:09:59;;;;;;;31.98;14.57;;;;;;;2.60;100.00;101665.75;5089718;28;20038;-79
2024/01/21 09:12:24;;;;;;;19.85;9.98;;;;;;;2.32;100.00;101636.44;5089833;28;20522;-79
2024/01/21 09:14:49;;;;;;;23.60;10.23;;;;;;;2.38;100.00;101662.25;5069515;28;20075;-78
2024/01/21 09:17:15;;;;;;;31.35;11.82;;;;;;;2.48;100.00;101662.34;5069676;28;20036;-79
2024/01/21 09:19:40;;;;;;;29.30;13.23;;;;;;;2.97;100.00;101650.31;5073481;28;20031;-79
2024/01/21 09:22:06;;;;;;;21.83;11.70;;;;;;;3.11;100.00;101658.88;5089182;28;20162;-79
2024/01/21 09:24:31;;;;;;;18.88;10.90;;;;;;;3.44;100.00;101672.78;5086629;28;20123;-80
2024/01/21 09:26:57;;;;;;;21.35;11.32;;;;;;;3.59;100.00;101627.41;5089392;28;20093;-78
2024/01/21 09:29:22;;;;;;;23.98;12.00;;;;;;;3.84;100.00;101651.63;5070192;28;20493;-77
2024/01/21 09:31:55;;;;;;;21.60;10.85;;;;;;;3.69;100.00;101623.97;5069047;28;20405;-78
2024/01/21 09:34:21;;;;;;;32.05;21.58;;;;;;;3.85;100.00;101637.47;5083320;28;20043;-77
2024/01/21 09:36:47;;;;;;;23.45;11.25;;;;;;;3.75;100.00;101652.44;5070805;28;20032;-78
2024/01/21 09:39:12;;;;;;;20.80;10.95;;;;;;;3.74;100.00;101643.72;5088918;28;20428;-78
2024/01/21 09:41:51;;;;;;;20.92;11.57;;;;;;;4.02;100.00;101659.72;5088158;28;20035;-78
2024/01/21 09:44:24;;;;;;;18.23;10.38;;;;;;;3.60;100.00;101628.25;5077932;28;20524;-78
2024/01/21 09:46:58;;;;;;;18.77;10.68;;;;;;;3.70;100.00;101658.13;5068770;28;20081;-78
2024/01/21 09:49:24;;;;;;;20.05;10.68;;;;;;;3.79;100.00;101649.41;5068717;28;20032;-77
2024/01/21 09:51:51;;;;;;;24.65;12.05;;;;;;;3.86;100.00;101623.28;5050929;28;20413;-78
2024/01/21 09:54:17;;;;;;;26.58;12.60;;;;;;;4.35;100.00;101655.88;5081042;28;20043;-77
2024/01/21 09:56:43;;;;;;;32.97;19.15;;;;;;;4.47;100.00;101629.31;5089048;28;20020;-78
2024/01/21 09:59:10;;;;;;;24.45;13.63;;;;;;;4.69;100.00;101652.78;5091464;28;20570;-78
2024/01/21 10:01:40;;;;;;;21.58;12.23;;;;;;;4.68;100.00;101648.47;5095567;28;20224;-78
2024/01/21 10:04:10;;;;;;;19.55;11.07;;;;;;;4.56;100.00;101652.25;5069739;28;20101;-78
2024/01/21 10:06:36;;;;;;;26.70;13.95;;;;;;;4.44;100.00;101651.56;5081868;28;20036;-79
2024/01/21 10:09:11;;;;;;;21.95;12.18;;;;;;;4.54;100.00;101648.91;5079790;28;20519;-79
2024/01/21 10:11:37;;;;;;;23.33;12.60;;;;;;;4.58;100.00;101626.53;5079385;28;20032;-78
2024/01/21 10:14:03;;;;;;;22.73;12.73;;;;;;;4.74;100.00;101640.00;5078088;28;20024;-77
2024/01/21 10:16:28;;;;;;;21.23;12.18;;;;;;;4.15;100.00;101625.97;5078382;28;20489;-78
2024/01/21 10:18:53;;;;;;;26.33;14.45;;;;;;;3.90;100.00;101642.34;5079835;28;20107;-77
2024/01/21 10:21:19;;;;;;;20.35;12.48;;;;;;;3.90;100.00;101627.31;5088043;28;20032;-77
2024/01/21 10:23:47;;;;;;;20.98;11.80;;;;;;;4.17;100.00;101636.41;5084518;28;20125;-77
2024/01/21 10:26:12;;;;;;;23.23;11.18;;;;;;;3.95;100.00;101604.00;5068181;28;20024;-79
2024/01/21 10:28:39;;;;;;;19.58;10.93;;;;;;;4.35;100.00;101632.09;5075277;28;20036;-78
2024/01/21 10:31:06;;;;;;;23.58;13.43;;;;;;;4.47;100.00;101634.59;5083510;28;20492;-77
2024/01/21 10:33:32;;;;;;;20.95;11.45;;;;;;;4.25;100.00;101627.78;5087295;28;20491;-76
2024/01/21 10:36:01;;;;;;;20.33;12.73;;;;;;;4.28;100.00;101630.97;5088004;28;20085;-77
2024/01/21 10:38:32;;;;;;;20.85;11.20;;;;;;;4.52;100.00;101614.69;5089703;28;20553;-76
2024/01/21 10:40:59;;;;;;;19.77;11.23;;;;;;;4.37;100.00;101616.09;5083339;28;20501;-76
2024/01/21 10:43:25;;;;;;;19.35;11.20;;;;;;;4.14;100.00;101626.13;5070620;28;20533;-77
2024/01/21 10:45:53;;;;;;;18.25;10.48;;;;;;;3.80;100.00;101610.63;5071499;28;20118;-76
2024/01/21 10:48:20;;;;;;;15.70;9.83;;;;;;;4.48;100.00;101633.63;5077111;28;20067;-77
2024/01/21 10:50:46;;;;;;;16.88;10.25;;;;;;;4.15;100.00;101627.78;5087736;28;20102;-76
2024/01/21 10:53:13;;;;;;;17.00;10.18;;;;;;;4.51;100.00;101633.31;5068246;28;20621;-77
2024/01/21 10:55:42;;;;;;;29.80;15.25;;;;;;;4.90;100.00;101639.38;5072141;28;20039;-77
2024/01/21 10:58:08;;;;;;;17.30;10.80;;;;;;;4.84;100.00;101626.72;5087883;28;20104;-76
2024/01/21 11:00:38;;;;;;;18.60;11.75;;;;;;;4.50;100.00;101618.47;5078398;28;20396;-76
2024/01/21 11:03:23;;;;;;;17.60;10.80;;;;;;;4.45;100.00;101633.88;5090084;28;20107;-75
2024/01/21 11:05:53;;;;;;;22.52;13.30;;;;;;;4.68;100.00;101619.41;5085093;28;20382;-76